TFM - Tactical Decision Aid
ID: Runway Winds: CIG/VIS Threshold:

KGLH - Greenville/Mid Delta, MS, US

Updated at: 1045 UTC 07 Dec 2022
Latest TAF at: 0520 UTC 07 Dec 2022

TAF Board

Time0953Z 07/11Z 07/12Z 07/13Z 07/14Z 07/15Z 07/16Z 07/17Z 07/18Z 07/19Z 07/20Z 07/21Z 07/22Z 07/23Z>>
Type OBS PRVL PRVL PRVL PRVL
  [TEMP]  
PRVL
  [TEMP]  
PRVL PRVL PRVL PRVL PRVL PRVL PRVL PRVL
VIS 10 >6 >6 >6 >6
  [6]  
>6
  [6]  
>6 >6 >6 >6 >6 >6 >6 >6
CIG -- 50 50 50 18
  [12]  
18
  [12]  
18 22 22 22 22 60 60 60
Cover FEW OVC OVC OVC OVC
  [OVC]  
OVC
  [OVC]  
OVC BKN BKN BKN BKN BKN BKN BKN
FltCat VFR VFR VFR VFR MVFR
  [MVFR]  
MVFR
  [MVFR]  
MVFR MVFR MVFR MVFR MVFR VFR VFR VFR
WX -- VCSH VCSH VCSH --
  [-SHRA BR]  
--
  [-SHRA BR]  
-- -- -- -- -- -- -- --
WDir 190 190 190 190 210
[210]
210
[210]
210 240 240 240 240 230 230 230
WSpd 9 6 6 6 8
  [8]  
8
  [8]  
8 10 10 10 10 7 7 7
WGst -- -- -- -- --
  [--]  
--
  [--]  
-- -- -- -- -- -- -- --
WSHgt -- -- -- -- --
[--]
--
[--]
-- -- -- -- -- -- -- --
WSDir -- -- -- -- --
[--]
--
[--]
-- -- -- -- -- -- -- --
WSSpd -- -- -- -- --
[--]
--
[--]
-- -- -- -- -- -- -- --

TDA Impact Legend

  None Marginal Slight Moderate High
Visibility (sm) >5 3≤X≤5 2≤X<3 0.5≤X<2 <0.5
Ceiling (100 ft) >30 10≤X≤30 6≤X<10 2≤X<6 <2
Wind Speed (kt) <15 15≤X<25 25≤X<30 ≥30
Wind Gust (kt) <15 15≤X<25 25≤X<35 ≥35
Weather No Wx Reported VCTS -TS,-FZRA TS,FZRA +TS,+FZRA
TAF
KGLH 070520Z 0706/0806 19007KT P6SM OVC050
  FM070900 19006KT P6SM VCSH OVC050
  FM071400 21008KT P6SM OVC018
  TEMPO 0714/0716 6SM -SHRA BR OVC012
  FM071700 24010KT P6SM BKN022
  FM072100 23007KT P6SM BKN060


METAR
KGLH 070953Z AUTO 19009KT 10SM FEW110 21/18 A3011 RMK AO2 RAB15E41 SLP203 P0001 T02110183
KGLH 070853Z AUTO 20009KT 10SM FEW060 22/18 A3011 RMK AO2 SLP201 60000 T02220183 53012
KGLH 070753Z AUTO 20011KT 10SM SCT041 OVC060 23/19 A3009 RMK AO2 SLP195 T02280189

Radar Display
Forecast Discussion